Flight Track Log - Related Links

Times and Time Zones

All times are in EDT time to prevent confusion due to time zone crossing. See the FFT924 flight status page for this flight to view local times or setup timezone preferences in your user account.

Time Position Orientation Groundspeed Altitude Reporting Facility
EDT Latitude Longitude Course Direction KTS MPH feet Rate Location/Type
Sat 07:58:53 PM 26.6156 -81.7172 347° North 181 208 3,000  Level Miami Center
Sat 07:59:53 PM 26.6906 -81.7250 355° North 221 254 6,500 3,250 Climbing Miami Center
Sat 08:00:53 PM 26.7717 -81.7283 358° North 254 292 9,500 2,550 Climbing Miami Center
Sat 08:01:53 PM 26.8572 -81.7344 356° North 293 337 11,600 2,350 Climbing Miami Center
Sat 08:02:53 PM 26.9497 -81.7150 11° North 324 373 14,200 2,350 Climbing Miami Center
Sat 08:03:00 PM 27.2154 -81.8038 347° North  Level FlightAware Approximate
Sat 08:03:53 PM 27.0464 -81.6956 10° North 344 396 16,300  Level Miami Center
Sat 08:04:53 PM 27.1514 -81.6719 11° North 362 417 18,000 1,800 Climbing Miami Center
Sat 08:05:53 PM 27.2750 -81.6631 North 395 455 19,900 1,700 Climbing Miami Center
Sat 08:06:53 PM 27.3942 -81.6586 North 417 480 21,400 1,500 Climbing Miami Center
Sat 08:07:53 PM 27.5133 -81.6519 North 425 489 22,900 1,550 Climbing Miami Center
Sat 08:08:53 PM 27.6386 -81.6456 North 440 506 24,500 1,550 Climbing Miami Center
Sat 08:09:53 PM 27.7536 -81.6411 North 447 514 26,000 1,500 Climbing Miami Center
Sat 08:10:53 PM 27.8811 -81.6347 North 452 520 27,500 1,550 Climbing Miami Center
Sat 08:11:53 PM 28.0086 -81.6281 North 452 520 29,100 1,600 Climbing Miami Center
Sat 08:12:53 PM 28.1297 -81.6217 North 446 513 30,700 1,500 Climbing Miami Center
Sat 08:13:53 PM 28.2553 -81.6150 North 446 513 32,100 1,250 Climbing Miami Center
Sat 08:14:53 PM 28.3786 -81.6108 North 439 505 33,200 1,150 Climbing Miami Center
Sat 08:15:53 PM 28.5017 -81.6044 North 439 505 34,400 915 Climbing Miami Center
Sat 08:16:51 PM 28.6358 -81.5986 North 439 505 35,000 305 Climbing Jacksonville Center
Sat 08:17:51 PM 28.7631 -81.5922 North 473 544 35,000  Level Jacksonville Center
Sat 08:18:51 PM 28.8883 -81.5858 North 473 544 35,000  Level Jacksonville Center
Sat 08:19:51 PM 29.0136 -81.5794 North 457 526 35,000  Level Jacksonville Center
Sat 08:20:51 PM 29.1408 -81.5731 North 451 519 35,000  Level Jacksonville Center
Sat 08:21:51 PM 29.2514 -81.5692 North 446 513 35,000  Level Jacksonville Center
Sat 08:22:51 PM 29.3786 -81.5628 North 446 513 35,000  Level Jacksonville Center
Sat 08:23:51 PM 29.5017 -81.5539 North 446 513 35,000  Level Jacksonville Center
Sat 08:24:51 PM 29.6289 -81.5475 North 446 513 35,000 -50 Level Jacksonville Center
Sat 08:25:51 PM 29.7542 -81.5433 North 441 507 34,900 -50 Descending Jacksonville Center
Sat 08:26:51 PM 29.8792 -81.5344 North 441 507 34,900 50 Level Jacksonville Center
Sat 08:27:51 PM 30.0067 -81.5278 North 441 507 35,000 50 Climbing Jacksonville Center
Sat 08:28:51 PM 30.1297 -81.5214 North 441 507 35,000  Level Jacksonville Center
Sat 08:29:51 PM 30.2569 -81.5147 North 441 507 35,000  Level Jacksonville Center
Sat 08:30:51 PM 30.3842 -81.5056 North 446 513 35,000  Level Jacksonville Center
Sat 08:31:51 PM 30.5094 -81.4989 North 446 513 35,000  Level Jacksonville Center
Sat 08:32:51 PM 30.6492 -81.4847 North 451 519 35,000  Level Jacksonville Center
Sat 08:33:51 PM 30.7764 -81.4756 North 451 519 35,000  Level Jacksonville Center
Sat 08:34:51 PM 30.9017 -81.4689 North 451 519 35,000 -50 Level Jacksonville Center
Sat 08:35:51 PM 31.0289 -81.4500 North 451 519 34,900  Descending Jacksonville Center
Sat 08:36:51 PM 31.1517 -81.4336 North 445 512 35,000 50 Climbing Jacksonville Center
Sat 08:37:51 PM 31.2789 -81.4147 North 445 512 35,000  Level Jacksonville Center
Sat 08:38:51 PM 31.4019 -81.3981 North 445 512 35,000  Level Jacksonville Center
Sat 08:39:51 PM 31.5269 -81.3814 North 450 518 35,000  Level Jacksonville Center
Sat 08:40:51 PM 31.6394 -81.3675 North 444 511 35,000  Level Jacksonville Center
Sat 08:41:51 PM 31.7750 -81.3481 North 444 511 35,000  Level Jacksonville Center
Sat 08:42:51 PM 31.8875 -81.3314 North 444 511 35,000  Level Jacksonville Center
Sat 08:43:51 PM 32.0106 -81.3147 North 444 511 35,000  Level Jacksonville Center
Sat 08:44:51 PM 32.1356 -81.2978 North 444 511 35,000  Level Jacksonville Center
Sat 08:45:51 PM 32.2564 -81.2786 North 444 511 35,000 -50 Level Jacksonville Center
Sat 08:46:51 PM 32.3794 -81.2642 North 444 511 34,900  Descending Jacksonville Center
Sat 08:47:51 PM 32.5128 -81.2494 North 444 511 35,000 50 Climbing Jacksonville Center
Sat 08:48:51 PM 32.6314 -81.2153 14° North 439 505 35,000 -50 Level Jacksonville Center
Sat 08:49:51 PM 32.7350 -81.1492 28° Northeast 444 511 34,900  Descending Jacksonville Center
Sat 08:50:51 PM 32.8425 -81.0778 29° Northeast 444 511 35,000 50 Climbing Jacksonville Center
Sat 08:51:51 PM 32.9561 -81.0061 28° Northeast 444 511 35,000  Level Jacksonville Center
Sat 08:52:51 PM 33.0678 -80.9319 29° Northeast 450 518 35,000  Level Jacksonville Center
Sat 08:53:51 PM 33.1897 -80.8547 28° Northeast 455 524 35,000  Level Jacksonville Center
Sat 08:54:51 PM 33.3011 -80.7803 29° Northeast 455 524 35,000  Level Jacksonville Center
Sat 08:55:51 PM 33.4147 -80.7078 28° Northeast 455 524 35,000  Level Jacksonville Center
Sat 08:56:51 PM 33.5242 -80.6353 29° Northeast 455 524 35,000  Level Jacksonville Center
Sat 08:57:51 PM 33.6333 -80.5603 30° Northeast 455 524 35,000 -50 Level Jacksonville Center
Sat 08:58:51 PM 33.7425 -80.4897 28° Northeast 455 524 34,900 -50 Descending Jacksonville Center
Sat 08:59:51 PM 33.8517 -80.4169 29° Northeast 455 524 34,900 50 Level Jacksonville Center
Sat 09:00:51 PM 33.9608 -80.3436 29° Northeast 455 524 35,000 50 Climbing Jacksonville Center
Sat 09:01:51 PM 34.0700 -80.2678 30° Northeast 455 524 35,000  Level Jacksonville Center
Sat 09:02:51 PM 34.1811 -80.1967 28° Northeast 455 524 35,000  Level Jacksonville Center
Sat 09:04:48 PM 34.3767 -80.0625 30° Northeast 447 514 35,000  Level Washington Center
Sat 09:05:49 PM 34.4925 -79.9814 30° Northeast 448 516 35,000  Level Washington Center
Sat 09:06:51 PM 34.6047 -79.9067 29° Northeast 456 525 35,000  Level Washington Center
Sat 09:07:51 PM 34.7164 -79.8297 30° Northeast 458 527 35,000  Level Washington Center
Sat 09:08:52 PM 34.8283 -79.7550 29° Northeast 458 527 35,000  Level Washington Center
Sat 09:09:56 PM 34.9389 -79.6775 30° Northeast 456 525 35,000  Level Washington Center
Sat 09:10:56 PM 35.0492 -79.6011 30° Northeast 456 525 35,000  Level Washington Center
Sat 09:11:58 PM 35.1850 -79.5092 29° Northeast 459 528 35,000  Level Washington Center
Sat 09:12:58 PM 35.2956 -79.4319 30° Northeast 459 528 35,000  Level Washington Center
Sat 09:14:02 PM 35.4067 -79.3556 29° Northeast 459 528 35,000  Level Washington Center
Sat 09:15:01 PM 35.5250 -79.2733 29° Northeast 458 527 35,000  Level Washington Center
Sat 09:16:04 PM 35.6303 -79.1981 30° Northeast 461 531 35,000  Level Washington Center
Sat 09:17:06 PM 35.7408 -79.1208 30° Northeast 457 526 35,000  Level Washington Center
Sat 09:18:08 PM 35.8500 -79.0444 30° Northeast 449 517 35,000  Level Washington Center
Sat 09:19:09 PM 35.9619 -78.9653 30° Northeast 454 522 35,000  Level Washington Center
Sat 09:20:08 PM 36.0733 -78.8850 30° Northeast 457 526 35,000  Level Washington Center
Sat 09:21:12 PM 36.1850 -78.8050 30° Northeast 459 528 35,000  Level Washington Center
Sat 09:22:13 PM 36.3181 -78.7106 30° Northeast 458 527 35,000  Level Washington Center
Sat 09:23:13 PM 36.4294 -78.6308 30° Northeast 459 528 35,000  Level Washington Center
Sat 09:24:14 PM 36.5408 -78.5506 30° Northeast 459 528 35,000  Level Washington Center
Sat 09:25:15 PM 36.6519 -78.4708 30° Northeast 460 529 35,000 -192 Level Washington Center
Sat 09:26:19 PM 36.7597 -78.3956 29° Northeast 458 527 34,600 -439 Descending Washington Center
Sat 09:27:18 PM 36.8686 -78.3147 31° Northeast 458 527 34,100 -550 Descending Washington Center
Sat 09:28:19 PM 36.9939 -78.2233 30° Northeast 458 527 33,500 -541 Descending Washington Center
Sat 09:29:20 PM 37.1006 -78.1444 31° Northeast 458 527 33,000 -484 Descending Washington Center
Sat 09:30:23 PM 37.2189 -78.0569 30° Northeast 458 527 32,500 -480 Descending Washington Center
Sat 09:31:25 PM 37.3297 -77.9761 30° Northeast 458 527 32,000 -492 Descending Washington Center
Sat 09:32:25 PM 37.4403 -77.8956 30° Northeast 458 527 31,500 -496 Descending Washington Center
Sat 09:33:26 PM 37.5506 -77.8094 32° Northeast 463 533 31,000 -242 Descending Washington Center
Sat 09:34:29 PM 37.6572 -77.7133 35° Northeast 467 537 31,000  Level Washington Center
Sat 09:35:31 PM 37.7639 -77.6175 35° Northeast 470 541 31,000  Level Washington Center
Sat 09:36:32 PM 37.8703 -77.5200 36° Northeast 470 541 31,000  Level Washington Center
Sat 09:37:32 PM 37.9772 -77.4208 36° Northeast 472 543 31,000  Level Washington Center
Sat 09:38:32 PM 38.0989 -77.3106 35° Northeast 473 544 31,000 -48 Level Washington Center
Sat 09:39:36 PM 38.2053 -77.2108 36° Northeast 474 545 30,900 -720 Descending Washington Center
Sat 09:40:37 PM 38.3111 -77.1131 36° Northeast 474 545 29,500 -1,415 Descending Washington Center
Sat 09:41:39 PM 38.4172 -77.0144 36° Northeast 474 545 28,000 -1,475 Descending Washington Center
Sat 09:42:39 PM 38.5217 -76.9181 36° Northeast 470 541 26,500 -1,500 Descending Washington Center
Sat 09:43:39 PM 38.6281 -76.8175 36° Northeast 471 542 25,000 -1,220 Descending Washington Center
Sat 09:44:42 PM 38.7150 -76.6928 48° Northeast 481 554 24,000 -774 Descending Washington Center
Sat 09:45:43 PM 38.7589 -76.4903 74° East 491 565 23,400 -1,707 Descending Washington Center
Sat 09:46:45 PM 38.7942 -76.3236 75° East 489 563 20,500 -2,780 Descending Washington Center
Sat 09:47:46 PM 38.8275 -76.1631 75° East 466 536 17,700 -2,683 Descending Washington Center
Sat 09:48:48 PM 38.8706 -76.0164 69° East 456 525 15,000 -1,377 Descending Washington Center
Sat 09:49:48 PM 38.9681 -75.9286 35° Northeast 430 495 14,900 -49 Descending Washington Center
Sat 09:50:50 PM 39.0675 -75.8442 33° Northeast 430 495 14,900 -683 Level Washington Center
Sat 09:51:51 PM 39.1675 -75.7581 34° Northeast 433 498 13,500 -1,475 Descending Washington Center
Sat 09:52:52 PM 39.2619 -75.6758 34° Northeast 407 468 11,900 -787 Descending Washington Center
Sat 09:53:53 PM 39.3406 -75.6067 34° Northeast 333 383 11,900 50 Level Washington Center
Sat 09:54:53 PM 39.4142 -75.5450 33° Northeast 318 366 12,000 -293 Climbing Washington Center
Sat 09:55:56 PM 39.4953 -75.4764 33° Northeast 346 398 11,300 -843 Descending Washington Center
Sat 09:56:54 PM 39.5775 -75.4069 33° Northeast 351 404 10,300 -955 Descending Washington Center
Sat 09:57:24 PM 39.6333 -75.3500 38° Northeast 353 406 9,900 -250 Descending Philadelphia TRACON
Sat 09:58:30 PM 39.7167 -75.2833 32° Northeast 353 406 9,900 -48 Level Philadelphia TRACON
Sat 09:59:30 PM 39.8000 -75.2167 32° Northeast 311 358 9,800 -429 Descending Philadelphia TRACON
Sat 10:00:36 PM 39.8833 -75.1500 32° Northeast 299 344 9,000 -714 Descending Philadelphia TRACON
Sat 10:01:36 PM 39.9500 -75.1000 30° Northeast 301 346 8,300 -1,041 Descending Philadelphia TRACON
Sat 10:02:37 PM 40.0167 -75.0333 37° Northeast 297 342 6,900 -1,465 Descending Philadelphia TRACON
Sat 10:03:43 PM 40.0833 -74.9833 30° Northeast 259 298 5,200 -1,545 Descending Philadelphia TRACON

Login

Don't have an account? Register now (free) for customized features, flight alerts, and more!